Time;durP1;ratioP1;P1;durP2;ratioP2;P2;SDS_P1;SDS_P2;PMS_P1;PMS_P2;Temp;Humidity;BMP_temperature;BMP_pressure;BME280_temperature;BME280_humidity;BME280_pressure;Samples;Min_cycle;Max_cycle;Signal;HPM_P1;HPM_P2
2024/04/13 00:00:32;;;;;;;12.93;10.28;;;;;;;;;;1711570;83;25306;-64
2024/04/13 00:03:00;;;;;;;18.25;11.30;;;;;;;;;;1711590;83;25681;-64
2024/04/13 00:05:29;;;;;;;14.87;10.37;;;;;;;;;;1711714;83;25392;-63
2024/04/13 00:07:58;;;;;;;19.43;10.80;;;;;;;;;;1711731;83;25527;-68
2024/04/13 00:10:25;;;;;;;13.60;9.85;;;;;;;;;;1711475;83;26970;-64
2024/04/13 00:12:53;;;;;;;14.30;10.00;;;;;;;;;;1711753;83;25321;-64
2024/04/13 00:15:20;;;;;;;15.13;10.43;;;;;;;;;;1711489;83;27246;-64
2024/04/13 00:17:47;;;;;;;12.25;9.20;;;;;;;;;;1711419;83;25387;-63
2024/04/13 00:20:16;;;;;;;16.57;9.80;;;;;;;;;;1711536;83;25535;-64
2024/04/13 00:22:43;;;;;;;11.60;9.43;;;;;;;;;;1711708;83;25423;-64
2024/04/13 00:25:10;;;;;;;14.53;9.33;;;;;;;;;;1711526;83;25480;-65
2024/04/13 00:27:37;;;;;;;14.18;9.58;;;;;;;;;;1711514;83;27268;-63
2024/04/13 00:30:07;;;;;;;15.93;9.65;;;;;;;;;;1711380;83;25928;-64
2024/04/13 00:32:35;;;;;;;15.25;9.83;;;;;;;;;;1708714;83;25865;-64
2024/04/13 00:35:05;;;;;;;11.60;9.65;;;;;;;;;;1705756;84;25400;-65
2024/04/13 00:37:32;;;;;;;;;;;;;;;;;;1708206;84;25405;-64
2024/04/13 00:39:59;;;;;;;10.63;9.18;;;;;;;;;;1705670;84;27906;-64
2024/04/13 00:42:26;;;;;;;11.55;9.40;;;;;;;;;;1705524;84;25496;-65
2024/04/13 00:45:03;;;;;;;14.03;9.05;;;;;;;;;;1705670;84;25100;-64
2024/04/13 00:47:22;;;;;;;12.05;9.35;;;;;;;;;;1705627;84;25488;-64
2024/04/13 00:49:51;;;;;;;12.33;8.40;;;;;;;;;;1705762;84;25318;-65
2024/04/13 00:52:17;;;;;;;11.83;9.17;;;;;;;;;;1705849;84;27561;-64
2024/04/13 00:54:45;;;;;;;12.82;9.53;;;;;;;;;;1705580;84;25483;-64
2024/04/13 00:57:15;;;;;;;12.93;9.00;;;;;;;;;;1705877;84;25559;-64
2024/04/13 00:59:44;;;;;;;14.78;9.10;;;;;;;;;;1705681;84;25387;-64
2024/04/13 01:02:13;;;;;;;12.77;10.13;;;;;;;;;;1705957;84;25494;-66
2024/04/13 01:04:41;;;;;;;13.15;8.68;;;;;;;;;;1705749;84;27323;-63
2024/04/13 01:07:11;;;;;;;10.43;8.48;;;;;;;;;;1705674;84;25341;-65
2024/04/13 01:09:41;;;;;;;12.47;8.90;;;;;;;;;;1705817;84;25330;-64
2024/04/13 01:12:09;;;;;;;14.13;9.05;;;;;;;;;;1705631;84;25576;-64
2024/04/13 01:14:38;;;;;;;11.60;8.93;;;;;;;;;;1705776;84;29482;-64
2024/04/13 01:17:05;;;;;;;12.70;8.87;;;;;;;;;;1705832;84;27219;-64
2024/04/13 01:19:34;;;;;;;13.70;9.90;;;;;;;;;;1705503;84;25410;-64
2024/04/13 01:22:03;;;;;;;14.90;9.20;;;;;;;;;;1705851;84;25562;-64
2024/04/13 01:24:30;;;;;;;;;;;;;;;;;;1708108;84;25552;-64
2024/04/13 01:26:57;;;;;;;12.18;8.45;;;;;;;;;;1705692;84;25363;-64
2024/04/13 01:29:24;;;;;;;15.78;9.45;;;;;;;;;;1705572;84;27853;-64
2024/04/13 01:31:53;;;;;;;13.50;9.85;;;;;;;;;;1705475;84;25465;-64
2024/04/13 01:34:20;;;;;;;14.30;9.73;;;;;;;;;;1708576;84;25128;-64
2024/04/13 01:36:47;;;;;;;17.87;11.10;;;;;;;;;;1708394;84;25392;-64
2024/04/13 01:39:14;;;;;;;14.87;9.58;;;;;;;;;;1708473;84;25322;-65
2024/04/13 01:41:47;;;;;;;16.17;9.55;;;;;;;;;;1708505;84;27850;-65
2024/04/13 01:44:15;;;;;;;12.05;9.30;;;;;;;;;;1708357;84;25543;-64
2024/04/13 01:46:42;;;;;;;12.30;9.75;;;;;;;;;;1708417;84;25510;-64
2024/04/13 01:49:11;;;;;;;14.00;10.98;;;;;;;;;;1708440;84;25346;-64
2024/04/13 01:51:40;;;;;;;13.40;10.45;;;;;;;;;;1708399;84;25542;-65
2024/04/13 01:54:06;;;;;;;11.97;10.45;;;;;;;;;;1708484;83;28205;-64
2024/04/13 01:56:33;;;;;;;13.93;10.25;;;;;;;;;;1708297;84;25414;-64
2024/04/13 01:59:00;;;;;;;14.75;10.35;;;;;;;;;;1708391;84;25479;-63
2024/04/13 02:01:27;;;;;;;14.65;10.08;;;;;;;;;;1708342;84;25498;-64
2024/04/13 02:03:56;;;;;;;15.30;10.27;;;;;;;;;;1708624;84;25335;-64
2024/04/13 02:06:23;;;;;;;15.00;10.25;;;;;;;;;;1708374;84;27243;-64
2024/04/13 02:08:49;;;;;;;12.68;10.48;;;;;;;;;;1708364;84;25620;-64
2024/04/13 02:11:18;;;;;;;13.60;10.70;;;;;;;;;;1708405;84;25361;-64
2024/04/13 02:13:45;;;;;;;13.30;10.40;;;;;;;;;;1708641;84;25540;-64
2024/04/13 02:16:12;;;;;;;15.28;10.13;;;;;;;;;;1708458;84;25568;-64
2024/04/13 02:18:39;;;;;;;15.13;10.95;;;;;;;;;;1708398;84;27285;-63
2024/04/13 02:21:06;;;;;;;13.55;10.20;;;;;;;;;;1708301;84;25342;-63
2024/04/13 02:23:35;;;;;;;17.35;11.70;;;;;;;;;;1708382;84;25526;-63
2024/04/13 02:26:03;;;;;;;23.18;10.53;;;;;;;;;;1708013;84;25540;-64
2024/04/13 02:28:32;;;;;;;11.68;9.65;;;;;;;;;;1708474;84;25327;-64
2024/04/13 02:30:59;;;;;;;14.03;9.83;;;;;;;;;;1708436;84;29442;-64
2024/04/13 02:33:28;;;;;;;16.67;10.82;;;;;;;;;;1706837;84;25867;-64
2024/04/13 02:36:04;;;;;;;18.15;10.48;;;;;;;;;;1705554;84;25515;-64
2024/04/13 02:38:32;;;;;;;11.25;9.45;;;;;;;;;;1705576;84;25528;-64
2024/04/13 02:41:03;;;;;;;18.00;10.45;;;;;;;;;;1705748;84;25415;-65
2024/04/13 02:43:32;;;;;;;16.55;9.85;;;;;;;;;;1705783;84;27219;-65
2024/04/13 02:46:08;;;;;;;14.10;10.48;;;;;;;;;;1705791;84;25412;-64
2024/04/13 02:48:43;;;;;;;17.02;9.88;;;;;;;;;;1705763;84;25531;-65
2024/04/13 02:51:14;;;;;;;14.33;10.72;;;;;;;;;;1705713;84;25329;-65
2024/04/13 02:53:40;;;;;;;15.03;9.90;;;;;;;;;;1705969;84;25331;-64
2024/04/13 02:56:09;;;;;;;14.10;10.10;;;;;;;;;;1705818;84;27558;-65
2024/04/13 02:58:37;;;;;;;13.38;11.05;;;;;;;;;;1705823;84;25626;-64
2024/04/13 03:01:09;;;;;;;13.38;10.43;;;;;;;;;;1705950;84;25426;-65
2024/04/13 03:03:36;;;;;;;15.05;10.80;;;;;;;;;;1704936;84;25397;-64
2024/04/13 03:06:08;;;;;;;14.85;10.90;;;;;;;;;;1705917;84;25335;-64
2024/04/13 03:08:38;;;;;;;15.03;10.88;;;;;;;;;;1705786;84;27214;-64
2024/04/13 03:11:11;;;;;;;15.45;9.65;;;;;;;;;;1705741;84;26992;-64
2024/04/13 03:13:39;;;;;;;14.30;10.80;;;;;;;;;;1705823;84;25313;-64
2024/04/13 03:16:09;;;;;;;13.15;10.20;;;;;;;;;;1705775;84;25551;-64
2024/04/13 03:18:39;;;;;;;14.33;10.32;;;;;;;;;;1705793;84;25501;-64
2024/04/13 03:21:08;;;;;;;12.25;9.33;;;;;;;;;;1705742;84;27289;-64
2024/04/13 03:23:38;;;;;;;12.70;10.30;;;;;;;;;;1705635;84;25508;-63
2024/04/13 03:26:05;;;;;;;13.30;9.55;;;;;;;;;;1705734;84;25353;-63
2024/04/13 03:28:36;;;;;;;12.10;9.40;;;;;;;;;;1705678;84;25398;-64
2024/04/13 03:31:05;;;;;;;14.65;9.95;;;;;;;;;;1705693;84;25539;-65
2024/04/13 03:33:34;;;;;;;11.95;9.33;;;;;;;;;;1706962;84;26885;-64
2024/04/13 03:36:05;;;;;;;13.85;11.03;;;;;;;;;;1708543;84;25578;-64
2024/04/13 03:38:32;;;;;;;14.47;9.78;;;;;;;;;;1708507;84;25544;-63
2024/04/13 03:41:08;;;;;;;12.68;10.28;;;;;;;;;;1708429;84;25763;-64
2024/04/13 03:43:39;;;;;;;15.03;11.05;;;;;;;;;;1708758;84;25550;-64
2024/04/13 03:46:09;;;;;;;17.82;11.43;;;;;;;;;;1708603;84;27251;-64
2024/04/13 03:48:41;;;;;;;13.95;10.80;;;;;;;;;;1708440;84;25608;-64
2024/04/13 03:51:06;;;;;;;12.05;9.55;;;;;;;;;;1707486;84;25472;-64
2024/04/13 03:53:37;;;;;;;15.53;11.40;;;;;;;;;;1708565;84;25400;-64
2024/04/13 03:56:07;;;;;;;13.83;10.70;;;;;;;;;;1708446;84;25519;-64
2024/04/13 03:58:33;;;;;;;14.40;10.55;;;;;;;;;;1708590;83;27828;-64
2024/04/13 04:01:01;;;;;;;16.65;10.45;;;;;;;;;;1708275;84;25408;-64
2024/04/13 04:03:29;;;;;;;17.48;11.43;;;;;;;;;;1708627;84;25498;-64
2024/04/13 04:05:56;;;;;;;16.32;11.10;;;;;;;;;;1708434;84;25471;-64
2024/04/13 04:08:23;;;;;;;16.17;10.05;;;;;;;;;;1708457;84;25379;-64
2024/04/13 04:10:50;;;;;;;16.25;10.25;;;;;;;;;;1708433;84;27354;-64
2024/04/13 04:13:17;;;;;;;16.55;12.10;;;;;;;;;;1708380;84;25309;-64
2024/04/13 04:15:44;;;;;;;16.27;10.72;;;;;;;;;;1708404;84;25579;-63
2024/04/13 04:18:11;;;;;;;13.70;9.75;;;;;;;;;;1708440;84;25479;-63
2024/04/13 04:20:41;;;;;;;17.20;12.15;;;;;;;;;;1708701;84;25502;-64
2024/04/13 04:23:08;;;;;;;15.18;11.50;;;;;;;;;;1708604;84;27082;-65
2024/04/13 04:25:35;;;;;;;18.60;11.97;;;;;;;;;;1708318;84;25457;-64
2024/04/13 04:28:05;;;;;;;15.05;11.63;;;;;;;;;;1708432;84;25515;-64
2024/04/13 04:30:32;;;;;;;19.30;11.75;;;;;;;;;;1708410;84;25379;-64
2024/04/13 04:33:00;;;;;;;17.42;11.57;;;;;;;;;;1708433;84;25380;-64
2024/04/13 04:35:27;;;;;;;16.05;11.12;;;;;;;;;;1708485;84;28230;-63
2024/04/13 04:37:54;;;;;;;16.12;10.90;;;;;;;;;;1708391;84;25327;-63
2024/04/13 04:40:23;;;;;;;18.40;12.30;;;;;;;;;;1708637;84;25468;-63
2024/04/13 04:42:51;;;;;;;19.27;13.00;;;;;;;;;;1708534;84;25849;-63
2024/04/13 04:45:18;;;;;;;16.10;11.78;;;;;;;;;;1708473;84;25499;-63
2024/04/13 04:47:49;;;;;;;15.72;12.45;;;;;;;;;;1708560;84;28166;-64
2024/04/13 04:50:18;;;;;;;22.80;12.98;;;;;;;;;;1708392;84;25376;-65
2024/04/13 04:52:45;;;;;;;21.75;12.93;;;;;;;;;;1708549;84;25381;-64
2024/04/13 04:55:12;;;;;;;17.15;12.45;;;;;;;;;;1708392;84;25602;-64
2024/04/13 04:57:39;;;;;;;20.08;12.68;;;;;;;;;;1708477;84;25572;-64
2024/04/13 05:00:13;;;;;;;19.80;14.15;;;;;;;;;;1708436;84;27238;-65
2024/04/13 05:02:38;;;;;;;21.70;14.80;;;;;;;;;;1707362;84;25511;-63
2024/04/13 05:05:05;;;;;;;20.62;14.25;;;;;;;;;;1708381;84;25604;-64
2024/04/13 05:07:32;;;;;;;20.25;13.32;;;;;;;;;;1708375;84;25501;-64
2024/04/13 05:09:59;;;;;;;21.50;13.53;;;;;;;;;;1708430;84;25382;-64
2024/04/13 05:12:26;;;;;;;23.10;14.50;;;;;;;;;;1708440;84;27335;-64
2024/04/13 05:14:53;;;;;;;18.20;13.43;;;;;;;;;;1708291;84;25408;-65
2024/04/13 05:17:20;;;;;;;22.98;14.15;;;;;;;;;;1708418;84;25505;-64
2024/04/13 05:19:49;;;;;;;;;;;;;;;;;;1710968;84;25553;-65
2024/04/13 05:22:16;;;;;;;25.08;13.10;;;;;;;;;;1708449;84;25511;-64
2024/04/13 05:24:43;;;;;;;23.45;13.40;;;;;;;;;;1708442;84;27876;-64
2024/04/13 05:27:10;;;;;;;21.60;14.65;;;;;;;;;;1708269;84;25551;-64
2024/04/13 05:29:39;;;;;;;20.02;13.50;;;;;;;;;;1708394;84;25337;-64
2024/04/13 05:32:09;;;;;;;20.40;13.62;;;;;;;;;;1707964;83;25361;-64
2024/04/13 05:34:38;;;;;;;20.82;13.68;;;;;;;;;;1706828;84;25381;-64
2024/04/13 05:37:06;;;;;;;;;;;;;;;;;;1708144;84;27303;-64
2024/04/13 05:39:36;;;;;;;18.60;12.07;;;;;;;;;;1705741;84;25810;-64
2024/04/13 05:42:06;;;;;;;24.40;13.20;;;;;;;;;;1705798;84;25544;-64
2024/04/13 05:44:33;;;;;;;16.90;12.47;;;;;;;;;;1705595;84;25851;-64
2024/04/13 05:47:00;;;;;;;19.25;13.43;;;;;;;;;;1705635;84;25492;-64
2024/04/13 05:49:28;;;;;;;21.90;13.13;;;;;;;;;;1705654;84;27551;-65
2024/04/13 05:51:57;;;;;;;19.05;13.00;;;;;;;;;;1705465;84;25539;-64
2024/04/13 05:54:26;;;;;;;17.02;11.57;;;;;;;;;;1705636;84;25486;-64
2024/04/13 05:56:53;;;;;;;18.30;12.45;;;;;;;;;;1705698;84;25497;-64
2024/04/13 05:59:20;;;;;;;18.62;10.63;;;;;;;;;;1705627;84;25495;-64
2024/04/13 06:01:47;;;;;;;23.50;11.60;;;;;;;;;;1705540;84;27305;-63
2024/04/13 06:04:14;;;;;;;22.60;12.30;;;;;;;;;;1680983;84;25615;-65
2024/04/13 06:06:43;;;;;;;46.70;42.53;;;;;;;;;;1705602;84;25335;-65
2024/04/13 06:09:10;;;;;;;87.35;81.20;;;;;;;;;;1705694;84;25486;-64
2024/04/13 06:11:38;;;;;;;86.12;80.03;;;;;;;;;;1705765;84;25538;-64
2024/04/13 06:14:05;;;;;;;86.28;79.75;;;;;;;;;;1705616;84;27271;-64
2024/04/13 06:16:34;;;;;;;85.60;78.97;;;;;;;;;;1705578;84;25582;-63
2024/04/13 06:19:01;;;;;;;84.07;78.07;;;;;;;;;;1705721;84;25503;-64
2024/04/13 06:21:28;;;;;;;84.95;78.95;;;;;;;;;;1705536;84;26053;-64
2024/04/13 06:23:55;;;;;;;85.75;79.77;;;;;;;;;;1681058;84;25400;-64
2024/04/13 06:26:25;;;;;;;84.20;78.05;;;;;;;;;;1705612;84;26855;-64
2024/04/13 06:28:53;;;;;;;84.47;77.95;;;;;;;;;;1705540;84;25480;-64
2024/04/13 06:31:19;;;;;;;80.07;74.22;;;;;;;;;;1705563;84;25483;-64
2024/04/13 06:33:46;;;;;;;87.75;81.42;;;;;;;;;;1705670;84;25525;-65
2024/04/13 06:36:13;;;;;;;87.33;80.65;;;;;;;;;;1708471;84;25483;-65
2024/04/13 06:38:40;;;;;;;22.10;16.87;;;;;;;;;;1708364;84;27893;-64
2024/04/13 06:41:07;;;;;;;23.20;20.50;;;;;;;;;;1708295;84;25484;-63
2024/04/13 06:43:34;;;;;;;19.65;12.23;;;;;;;;;;1708391;84;25479;-64
2024/04/13 06:46:03;;;;;;;72.25;66.87;;;;;;;;;;1679742;84;26154;-64
2024/04/13 06:48:30;;;;;;;77.00;71.33;;;;;;;;;;1708548;84;25490;-64
2024/04/13 06:51:00;;;;;;;18.55;11.53;;;;;;;;;;1708481;84;27223;-65
2024/04/13 06:53:31;;;;;;;;;;;;;;;;;;1710890;84;25332;-64
2024/04/13 06:55:58;;;;;;;18.32;12.95;;;;;;;;;;1708384;84;25667;-64
2024/04/13 06:58:25;;;;;;;15.68;11.80;;;;;;;;;;1708325;84;25568;-65
2024/04/13 07:00:56;;;;;;;19.20;10.95;;;;;;;;;;1708409;84;25488;-65
2024/04/13 07:03:25;;;;;;;19.87;15.72;;;;;;;;;;1708343;84;27590;-64
2024/04/13 07:05:59;;;;;;;21.25;11.65;;;;;;;;;;1708307;84;25498;-64
2024/04/13 07:08:28;;;;;;;18.05;11.57;;;;;;;;;;1708347;83;25514;-63
2024/04/13 07:10:57;;;;;;;19.23;11.65;;;;;;;;;;1708303;84;25381;-65
2024/04/13 07:13:24;;;;;;;16.50;11.22;;;;;;;;;;1708535;84;25560;-64
2024/04/13 07:15:51;;;;;;;19.25;11.70;;;;;;;;;;1708313;84;27839;-66
2024/04/13 07:18:18;;;;;;;17.90;13.85;;;;;;;;;;1708225;84;25459;-68
2024/04/13 07:20:47;;;;;;;17.98;11.70;;;;;;;;;;1708368;84;25490;-67
2024/04/13 07:23:16;;;;;;;16.52;11.25;;;;;;;;;;1708501;84;25910;-66
2024/04/13 07:25:44;;;;;;;80.30;74.15;;;;;;;;;;1708526;84;32700;-65
2024/04/13 07:28:11;;;;;;;16.75;11.97;;;;;;;;;;1708592;84;27289;-64
2024/04/13 07:30:38;;;;;;;17.90;11.75;;;;;;;;;;1708492;84;25503;-64
2024/04/13 07:33:05;;;;;;;17.75;12.47;;;;;;;;;;1708453;84;25552;-64
2024/04/13 07:35:34;;;;;;;19.15;12.07;;;;;;;;;;1706687;84;25954;-63
2024/04/13 07:38:01;;;;;;;20.17;12.13;;;;;;;;;;1705731;84;25553;-64
2024/04/13 07:40:30;;;;;;;15.15;11.18;;;;;;;;;;1705794;84;27727;-64
2024/04/13 07:42:57;;;;;;;13.95;11.05;;;;;;;;;;1705601;84;25531;-64
2024/04/13 07:45:24;;;;;;;13.83;11.43;;;;;;;;;;1705642;84;25524;-64
2024/04/13 07:47:51;;;;;;;16.55;10.93;;;;;;;;;;1705643;84;25311;-67
2024/04/13 07:50:18;;;;;;;15.60;10.10;;;;;;;;;;1705778;84;25393;-65
2024/04/13 07:52:48;;;;;;;19.98;10.55;;;;;;;;;;1705902;84;27255;-65
2024/04/13 07:55:16;;;;;;;;;;;;;;;;;;1708200;84;25583;-66
2024/04/13 07:57:44;;;;;;;17.07;9.88;;;;;;;;;;1705837;84;25481;-64
2024/04/13 08:00:14;;;;;;;22.73;16.95;;;;;;;;;;1705656;84;25855;-64
2024/04/13 08:02:41;;;;;;;14.30;9.33;;;;;;;;;;1705758;84;25389;-64
2024/04/13 08:05:10;;;;;;;37.30;34.23;;;;;;;;;;1705789;84;28767;-63
2024/04/13 08:09:00;;;;;;;75.53;70.37;;;;;;;21.86;56.02;100880.31;1905471;74;25567;-65
2024/04/13 08:11:29;;;;;;;93.55;86.80;;;;;;;21.88;57.14;100879.38;1860011;77;25497;-65
2024/04/13 08:13:56;;;;;;;48.87;45.52;;;;;;;;;;1860036;77;27879;-65
2024/04/13 08:16:23;;;;;;;73.78;68.42;;;;;;;;;;1859961;77;25413;-63
2024/04/13 08:18:50;;;;;;;51.30;47.83;;;;;;;;;;1860046;77;25512;-64
2024/04/13 08:21:19;;;;;;;78.15;72.47;;;;;;;;;;1838660;77;25505;-60
2024/04/13 08:23:46;;;;;;;;;;;;;;;;;;1862679;76;25291;-65
2024/04/13 08:28:12;;;;;;;13.83;9.78;;;;;;;23.59;52.17;100884.36;1905532;74;25571;-64
2024/04/13 08:30:38;;;;;;;14.95;11.03;;;;;;;23.54;52.13;100882.56;1859928;77;25399;-63
2024/04/13 08:33:07;;;;;;;16.23;10.60;;;;;;;23.43;51.62;100877.75;1859874;77;27584;-64
2024/04/13 08:35:37;;;;;;;;;;;;;;;23.41;51.25;100882.87;1862609;77;25917;-66
2024/04/13 08:38:07;;;;;;;20.20;9.95;;;;;;;23.29;51.07;100875.67;1859978;76;25410;-55
2024/04/13 08:40:33;;;;;;;12.98;9.95;;;;;;;23.75;50.20;100882.71;1859904;76;25511;-54
2024/04/13 08:43:05;;;;;;;15.58;9.20;;;;;;;23.57;50.15;100873.52;1859918;76;25587;-54
2024/04/13 08:45:35;;;;;;;11.73;8.33;;;;;;;23.41;49.57;100877.91;1859898;77;27490;-55
2024/04/13 08:48:06;;;;;;;15.13;9.13;;;;;;;23.02;49.59;100874.20;1859796;76;25336;-53
2024/04/13 08:50:36;;;;;;;19.48;10.00;;;;;;;22.73;50.41;100876.11;1838593;77;25584;-55
2024/04/13 08:53:08;;;;;;;13.53;8.98;;;;;;;22.79;50.32;100861.39;1859900;77;25588;-54
2024/04/13 08:55:39;;;;;;;14.68;10.45;;;;;;;22.86;50.32;100873.08;1859930;77;25419;-56
2024/04/13 08:58:08;;;;;;;14.50;8.43;;;;;;;22.74;50.67;100872.76;1859942;77;27836;-59
2024/04/13 09:00:36;;;;;;;16.12;8.75;;;;;;;22.97;51.82;100874.55;1859794;76;25414;-51
2024/04/13 09:03:06;;;;;;;11.40;9.10;;;;;;;23.02;50.30;100870.87;1838867;77;25625;-52
2024/04/13 09:05:32;;;;;;;11.55;9.48;;;;;;;23.06;49.51;100881.37;1859868;77;25504;-55
2024/04/13 09:08:03;;;;;;;17.40;9.43;;;;;;;22.70;48.40;100884.34;1859823;77;25533;-53
2024/04/13 09:10:34;;;;;;;13.72;8.68;;;;;;;22.28;48.09;100874.41;1859924;77;27091;-55
2024/04/13 09:13:00;;;;;;;12.07;8.35;;;;;;;22.05;49.60;100871.71;1859794;76;25601;-53
2024/04/13 09:15:26;;;;;;;16.97;8.78;;;;;;;22.40;50.70;100860.97;1859864;76;25580;-53
2024/04/13 09:17:55;;;;;;;11.10;7.35;;;;;;;22.60;48.60;100880.30;1859780;77;25431;-53
2024/04/13 09:20:24;;;;;;;11.48;8.28;;;;;;;22.43;48.25;100874.78;1859302;76;25568;-52
2024/04/13 09:22:54;;;;;;;12.00;8.23;;;;;;;22.60;48.68;100870.65;1859870;76;28912;-58
2024/04/13 09:25:24;;;;;;;11.03;7.25;;;;;;;22.75;46.84;100857.81;1859742;77;25538;-63
2024/04/13 09:28:04;;;;;;;12.07;6.95;;;;;;;22.89;47.74;100868.19;1859695;76;25548;-55
2024/04/13 09:30:32;;;;;;;11.22;7.83;;;;;;;23.01;45.27;100866.52;1859818;77;25434;-57
2024/04/13 09:33:06;;;;;;;11.63;7.05;;;;;;;23.11;46.55;100863.69;1859896;77;25558;-58
2024/04/13 09:35:37;;;;;;;11.15;5.70;;;;;;;23.58;45.96;100859.33;1859920;76;28135;-57
2024/04/13 09:38:06;;;;;;;11.65;6.70;;;;;;;23.99;46.25;100861.14;1859525;76;25490;-55
2024/04/13 09:40:34;;;;;;;11.03;6.17;;;;;;;24.12;43.76;100851.34;1859244;76;25511;-55
2024/04/13 09:43:01;;;;;;;9.83;7.00;;;;;;;24.24;45.18;100854.36;1859522;76;25608;-53
2024/04/13 09:45:36;;;;;;;9.60;7.17;;;;;;;24.42;44.22;100857.98;1859215;76;25513;-62
2024/04/13 09:48:07;;;;;;;11.75;6.70;;;;;;;24.65;44.37;100850.56;1859259;77;27396;-60
2024/04/13 09:50:35;;;;;;;32.53;24.10;;;;;;;24.96;43.23;100855.36;1859132;76;25858;-65
2024/04/13 09:53:05;;;;;;;23.87;21.05;;;;;;;25.14;43.12;100853.96;1859191;76;25478;-66
2024/04/13 09:55:36;;;;;;;15.72;8.45;;;;;;;25.22;42.32;100863.06;1859211;76;25938;-67
2024/04/13 09:58:06;;;;;;;10.32;5.72;;;;;;;25.17;42.00;100861.48;1859298;77;25510;-66
2024/04/13 10:00:39;;;;;;;54.35;51.05;;;;;;;25.11;42.03;100842.29;1859259;76;27671;-66
2024/04/13 10:03:08;;;;;;;13.58;11.22;;;;;;;25.13;40.97;100846.86;1859181;76;25573;-66
2024/04/13 10:05:38;;;;;;;72.32;53.28;;;;;;;25.26;40.19;100841.73;1859395;76;25500;-67
2024/04/13 10:08:10;;;;;;;22.55;9.40;;;;;;;25.40;40.32;100842.30;1859229;77;25426;-66
2024/04/13 10:10:47;;;;;;;29.20;19.37;;;;;;;25.77;39.47;100840.27;1859260;76;25590;-64
2024/04/13 10:13:33;;;;;;;7.50;6.12;;;;;;;25.91;39.48;100832.71;1859251;77;27464;-63
2024/04/13 10:16:04;;;;;;;18.82;17.02;;;;;;;25.71;38.32;100847.61;1859118;76;25408;-64
2024/04/13 10:18:34;;;;;;;10.05;7.25;;;;;;;25.09;38.48;100850.81;1859250;76;25600;-65
2024/04/13 10:21:06;;;;;;;9.90;7.00;;;;;;;24.58;38.68;100852.72;1859219;77;25533;-64
2024/04/13 10:23:43;;;;;;;11.70;7.70;;;;;;;24.32;38.59;100847.67;1859255;76;25578;-64
2024/04/13 10:26:10;;;;;;;8.90;7.12;;;;;;;24.05;40.19;100846.58;1837995;77;28213;-64
2024/04/13 10:28:40;;;;;;;16.57;7.07;;;;;;;24.47;41.08;100833.88;1865277;76;26144;-64
2024/04/13 10:31:20;;;;;;;12.05;6.90;;;;;;;25.05;40.26;100838.36;1865871;76;25611;-64
2024/04/13 10:34:00;;;;;;;34.20;31.55;;;;;;;25.38;40.02;100823.14;1793437;79;25492;-64
2024/04/13 10:36:31;;;;;;;69.95;65.80;;;;;;;25.44;39.68;100827.88;1810045;79;25553;-66
2024/04/13 10:39:05;;;;;;;72.65;67.45;;;;;;;25.65;39.39;100802.10;1819015;78;28258;-65
2024/04/13 10:41:36;;;;;;;72.80;67.90;;;;;;;25.77;38.71;100813.95;1818890;78;25726;-66
2024/04/13 10:44:09;;;;;;;68.52;64.22;;;;;;;25.78;38.86;100812.74;1818990;78;25400;-64
2024/04/13 10:46:38;;;;;;;69.58;65.52;;;;;;;26.33;38.64;100817.69;1818815;78;25386;-66
2024/04/13 10:49:07;;;;;;;97.88;89.62;;;;;;;26.30;38.01;100812.95;1818836;78;25542;-68
2024/04/13 10:51:35;;;;;;;8.58;5.25;;;;;;;26.44;38.18;100811.50;1818841;78;27833;-65
2024/04/13 10:54:01;;;;;;;9.98;5.17;;;;;;;26.63;38.08;100810.20;1818761;78;25543;-63
2024/04/13 10:56:31;;;;;;;8.53;5.72;;;;;;;26.76;36.83;100806.34;1819084;78;25400;-68
2024/04/13 10:58:58;;;;;;;9.88;5.45;;;;;;;26.70;37.33;100814.11;1818957;78;25524;-65
2024/04/13 11:01:24;;;;;;;7.83;5.55;;;;;;;26.60;37.56;100815.75;1818865;78;25395;-65
2024/04/13 11:03:54;;;;;;;58.28;54.70;;;;;;;26.86;37.74;100828.88;1818754;78;27537;-66
2024/04/13 11:06:22;;;;;;;13.10;8.90;;;;;;;26.92;36.33;100838.33;1815205;78;26372;-65
2024/04/13 11:08:48;;;;;;;16.62;9.88;;;;;;;26.47;36.50;100823.75;1817615;78;25300;-62
2024/04/13 11:11:14;;;;;;;10.70;7.67;;;;;;;26.25;36.96;100830.78;1818680;78;25615;-64
2024/04/13 11:13:42;;;;;;;10.45;6.75;;;;;;;26.15;36.42;100824.70;1795324;79;25501;-62
2024/04/13 11:16:08;;;;;;;58.20;50.45;;;;;;;26.04;35.92;100823.37;1809897;79;29684;-62
2024/04/13 11:18:37;;;;;;;8.58;6.10;;;;;;;26.17;36.08;100820.14;1818699;78;25372;-61
2024/04/13 11:21:09;;;;;;;66.62;62.65;;;;;;;26.25;35.94;100816.14;1818747;78;25566;-61
2024/04/13 11:23:39;;;;;;;68.60;64.05;;;;;;;26.49;37.04;100807.48;1818819;78;25722;-59
2024/04/13 11:26:08;;;;;;;66.77;62.78;;;;;;;26.65;35.36;100807.81;1818833;78;25460;-60
2024/04/13 11:28:36;;;;;;;72.17;67.30;;;;;;;26.40;35.75;100806.55;1812076;78;27532;-58
2024/04/13 11:31:04;;;;;;;67.03;63.02;;;;;;;26.40;35.65;100801.00;1809919;79;25809;-59
2024/04/13 11:33:31;;;;;;;68.65;64.17;;;;;;;26.91;36.18;100807.63;1810204;78;25588;-58
2024/04/13 11:36:00;;;;;;;69.87;65.25;;;;;;;26.76;35.87;100805.55;1809892;78;25948;-58
2024/04/13 11:38:35;;;;;;;68.30;64.27;;;;;;;26.96;35.89;100804.41;1810162;79;25572;-59
2024/04/13 11:41:01;;;;;;;67.97;64.17;;;;;;;27.48;36.52;100796.02;1777603;79;27919;-62
2024/04/13 11:43:30;;;;;;;67.75;63.87;;;;;;;28.02;34.42;100797.39;1809895;79;25654;-58
2024/04/13 11:45:57;;;;;;;66.73;62.83;;;;;;;27.86;33.28;100786.85;1810227;79;25516;-61
2024/04/13 11:48:24;;;;;;;65.20;61.30;;;;;;;27.52;33.99;100787.64;1809851;78;25596;-60
2024/04/13 11:50:50;;;;;;;68.15;64.15;;;;;;;27.42;33.41;100779.60;1809900;79;25434;-57
2024/04/13 11:53:20;;;;;;;67.70;63.90;;;;;;;27.16;34.32;100776.88;1809892;79;27579;-56
2024/04/13 11:55:49;;;;;;;67.53;62.78;;;;;;;26.89;33.81;100791.98;1809867;78;25557;-56
2024/04/13 11:58:23;;;;;;;68.72;64.53;;;;;;;26.46;34.30;100795.84;1809987;78;25577;-63
2024/04/13 12:00:51;;;;;;;69.32;64.90;;;;;;;26.11;35.03;100798.21;1809878;79;25490;-67
2024/04/13 12:03:18;;;;;;;65.87;61.88;;;;;;;25.81;35.93;100789.78;1810075;79;25528;-69
2024/04/13 12:05:47;;;;;;;69.82;65.85;;;;;;;25.78;36.32;100789.20;1809858;79;28083;-73
2024/04/13 12:08:16;;;;;;;67.37;63.10;;;;;;;25.71;37.67;100792.20;1810047;78;25589;-67
2024/04/13 12:13:17;;;;;;;48.35;45.48;;;;;;;25.40;37.50;100784.77;1736281;78;26728;-64
2024/04/13 12:15:43;;;;;;;68.12;63.83;;;;;;;;;;1736777;82;25605;-72
2024/04/13 12:18:10;;;;;;;63.87;59.63;;;;;;;;;;1736121;82;25953;-67
2024/04/13 12:20:36;;;;;;;100.80;92.47;;;;;;;;;;1736091;82;25780;-64
2024/04/13 12:23:02;;;;;;;82.27;75.77;;;;;;;;;;1736166;82;25623;-64
2024/04/13 12:25:28;;;;;;;71.72;67.60;;;;;;;;;;1736132;82;25602;-59
2024/04/13 12:27:56;;;;;;;76.45;71.25;;;;;;;;;;1736100;82;25460;-59
2024/04/13 12:30:24;;;;;;;74.80;70.10;;;;;;;;;;1736229;82;27425;-60
2024/04/13 12:32:51;;;;;;;75.30;68.50;;;;;;;;;;1735984;82;25374;-61
2024/04/13 12:35:20;;;;;;;52.13;48.70;;;;;;;;;;1736072;82;25501;-62
2024/04/13 12:37:48;;;;;;;77.12;71.67;;;;;;;;;;1736095;82;25506;-59
2024/04/13 12:40:15;;;;;;;5.80;5.55;;;;;;;;;;1736123;82;25541;-58
2024/04/13 12:42:42;;;;;;;7.65;7.35;;;;;;;;;;1736074;82;27551;-58
2024/04/13 12:45:09;;;;;;;7.50;7.13;;;;;;;;;;1736199;82;25528;-59
2024/04/13 12:47:37;;;;;;;48.55;45.60;;;;;;;;;;1736066;82;25397;-57
2024/04/13 12:50:06;;;;;;;63.80;60.08;;;;;;;;;;1736145;82;25584;-59
2024/04/13 12:52:33;;;;;;;69.27;64.92;;;;;;;;;;1736205;82;25497;-58
2024/04/13 12:55:00;;;;;;;70.05;65.83;;;;;;;;;;1736046;82;27447;-59
2024/04/13 12:57:27;;;;;;;69.60;65.45;;;;;;;;;;1735936;82;25472;-58
2024/04/13 12:59:54;;;;;;;65.83;61.83;;;;;;;;;;1736025;82;25502;-58
2024/04/13 13:02:21;;;;;;;65.80;61.65;;;;;;;;;;1735971;82;25475;-57
2024/04/13 13:04:48;;;;;;;68.87;64.77;;;;;;;;;;1736123;82;25468;-58
2024/04/13 13:07:15;;;;;;;66.05;62.15;;;;;;;;;;1736049;82;27538;-58
2024/04/13 13:09:42;;;;;;;13.83;7.72;;;;;;;;;;1735988;82;25314;-58
2024/04/13 13:12:09;;;;;;;6.75;4.87;;;;;;;;;;1743194;80;25507;-56
2024/04/13 13:14:37;;;;;;;66.75;62.65;;;;;;;;;;1792244;80;25364;-55
2024/04/13 13:17:04;;;;;;;68.60;63.98;;;;;;;;;;1792347;80;25467;-55
2024/04/13 13:19:32;;;;;;;68.25;64.00;;;;;;;;;;1792309;80;27998;-54
2024/04/13 13:21:59;;;;;;;68.75;64.37;;;;;;;;;;1792380;80;25612;-62
2024/04/13 13:24:27;;;;;;;67.58;62.43;;;;;;;;;;1792381;80;25315;-62
2024/04/13 13:26:54;;;;;;;69.15;64.92;;;;;;;;;;1792168;80;25598;-58
2024/04/13 13:29:21;;;;;;;67.82;63.75;;;;;;;;;;1792327;80;25362;-64
2024/04/13 13:31:48;;;;;;;68.80;64.27;;;;;;;;;;1792238;80;27367;-56
2024/04/13 13:34:15;;;;;;;69.03;64.80;;;;;;;;;;1792199;80;25277;-53